Terminal Aerodrome Forecast
Issued by NWS

Home | Current Version | Previous Version | Text Only | Print | Product List | Glossary On
Versions: 1 2 3 4 5 6 7 8 9 10 11 12 13 14 15 16 17 18 19 20 21 22 23 24 25 26 27 28 29 30 31 32 33 34 35
000
FTUS43 KEAX 240520
TAFMKC
TAF
KMKC 240520Z 2406/2506 02005KT P6SM BKN027
     FM241000 03005KT P6SM BKN022
     FM241400 07006KT P6SM BKN018
     FM241900 09010KT P6SM SCT025
     FM250000 08006KT P6SM BKN035=

USA.gov is the U.S. government's official web portal to all federal, state and local government web resources and services.